createdAt,value
2022-11-05T00:08:08.857Z,10.20
2022-11-05T00:18:12.890Z,10.19
2022-11-05T00:28:15.324Z,10.15
2022-11-05T00:38:19.073Z,10.17
2022-11-05T00:48:38.830Z,10.22
2022-11-05T00:58:42.605Z,10.12
2022-11-05T01:08:45.711Z,10.08
2022-11-05T01:18:49.512Z,10.10
2022-11-05T01:28:52.856Z,10.12
2022-11-05T01:38:56.678Z,10.16
2022-11-05T01:49:03.640Z,10.18
2022-11-05T01:59:09.311Z,10.19
2022-11-05T02:09:14.099Z,10.03
2022-11-05T02:19:34.409Z,9.91
2022-11-05T02:29:59.287Z,9.94
2022-11-05T02:40:07.770Z,9.82
2022-11-05T02:50:15.405Z,9.98
2022-11-05T03:00:51.023Z,10.04
2022-11-05T03:10:58.965Z,10.07
2022-11-05T03:21:04.348Z,10.08
2022-11-05T03:31:08.984Z,9.97
2022-11-05T03:41:14.491Z,10.04
2022-11-05T03:51:21.993Z,10.07
2022-11-05T04:01:24.824Z,10.17
2022-11-05T04:11:46.625Z,10.14
2022-11-05T04:22:08.851Z,10.12
2022-11-05T04:32:12.603Z,10.08
2022-11-05T04:42:15.036Z,10.14
2022-11-05T04:52:18.810Z,10.07
2022-11-05T05:02:21.255Z,10.13
2022-11-05T05:12:25.671Z,10.15
2022-11-05T05:22:28.119Z,10.20
2022-11-05T05:32:31.970Z,10.24
2022-11-05T05:42:37.568Z,10.23
2022-11-05T05:52:45.587Z,10.28
2022-11-05T06:02:48.197Z,10.23
2022-11-05T06:12:52.067Z,10.00
2022-11-05T06:22:57.623Z,9.69
2022-11-05T06:33:04.624Z,9.97
2022-11-05T06:43:07.154Z,10.11
2022-11-05T06:53:11.512Z,9.83
2022-11-05T07:03:14.731Z,10.05
2022-11-05T07:13:18.983Z,10.07
2022-11-05T07:23:21.387Z,10.14
2022-11-05T07:33:25.112Z,9.93
2022-11-05T07:43:27.525Z,9.97
2022-11-05T07:53:31.269Z,9.90
2022-11-05T08:03:34.213Z,9.94
2022-11-05T08:13:38.465Z,10.18
2022-11-05T08:23:42.561Z,10.34
2022-11-05T08:33:46.316Z,10.38
2022-11-05T08:43:48.741Z,10.27
2022-11-05T08:53:52.493Z,10.44
2022-11-05T09:03:54.920Z,10.46
2022-11-05T09:14:00.874Z,10.25
2022-11-05T09:24:03.263Z,10.35
2022-11-05T09:34:07.177Z,10.35
2022-11-05T09:44:12.662Z,10.45
2022-11-05T09:54:16.554Z,10.47
2022-11-05T10:04:20.616Z,10.61
2022-11-05T10:14:26.921Z,10.62
2022-11-05T10:24:29.330Z,10.70
2022-11-05T10:34:34.453Z,10.72
2022-11-05T10:44:38.770Z,10.89
2022-11-05T10:54:42.675Z,11.02
2022-11-05T11:04:45.084Z,11.26
2022-11-05T11:15:01.045Z,11.31
2022-11-05T11:25:18.917Z,11.45
2022-11-05T11:35:23.921Z,11.38
2022-11-05T11:45:28.750Z,11.12
2022-11-05T11:55:32.568Z,11.05
2022-11-05T12:05:37.524Z,11.22
2022-11-05T12:15:44.189Z,11.22
2022-11-05T12:25:51.475Z,11.27
2022-11-05T12:36:10.497Z,11.28
2022-11-05T12:46:21.899Z,11.21
2022-11-05T12:56:31.731Z,11.28
2022-11-05T13:06:37.213Z,11.24
2022-11-05T13:16:42.655Z,11.32
2022-11-05T13:26:48.170Z,11.32
2022-11-05T13:37:12.849Z,11.29
2022-11-05T13:47:23.751Z,11.30
2022-11-05T13:57:36.344Z,11.30
2022-11-05T14:07:44.877Z,11.30
2022-11-05T14:17:59.607Z,11.11
2022-11-05T14:28:02.061Z,11.20
2022-11-05T14:38:07.690Z,11.14
2022-11-05T14:48:26.681Z,11.01
2022-11-05T14:58:31.936Z,10.96
2022-11-05T15:08:37.640Z,10.95
2022-11-05T15:18:45.156Z,10.98
2022-11-05T15:28:48.897Z,10.87
2022-11-05T15:39:15.528Z,10.87
2022-11-05T15:49:16.219Z,10.82
2022-11-05T15:59:20.737Z,10.78
2022-11-05T16:09:24.401Z,10.54
2022-11-05T16:19:40.895Z,10.57
2022-11-05T16:29:48.449Z,10.37
2022-11-05T16:39:52.442Z,10.27
2022-11-05T16:49:54.913Z,9.96
2022-11-05T16:59:59.626Z,9.80
2022-11-05T17:10:02.004Z,9.64
2022-11-05T17:20:06.401Z,9.58
2022-11-05T17:30:10.124Z,9.51
2022-11-05T17:40:15.917Z,9.39
2022-11-05T17:50:18.429Z,9.35
2022-11-05T18:00:23.146Z,9.32
2022-11-05T18:10:25.903Z,9.41
2022-11-05T18:20:31.437Z,9.46
2022-11-05T18:30:34.192Z,9.37
2022-11-05T18:40:37.969Z,9.22
2022-11-05T18:50:40.638Z,9.24
2022-11-05T19:00:46.460Z,8.89
2022-11-05T19:10:51.354Z,8.83
2022-11-05T19:20:55.078Z,8.72
2022-11-05T19:30:57.506Z,8.62
2022-11-05T19:41:03.526Z,8.58
2022-11-05T19:51:09.470Z,8.51
2022-11-05T20:01:13.904Z,8.49
2022-11-05T20:11:16.571Z,8.43
2022-11-05T20:21:20.667Z,8.22
2022-11-05T20:31:23.560Z,8.16
2022-11-05T20:41:27.656Z,8.03
2022-11-05T20:51:30.047Z,8.02
2022-11-05T21:01:34.318Z,7.93
2022-11-05T21:11:50.833Z,8.12
2022-11-05T21:21:54.574Z,8.00
2022-11-05T21:31:56.983Z,7.81
2022-11-05T21:42:00.742Z,7.73
2022-11-05T21:52:20.965Z,7.61
2022-11-05T22:02:28.362Z,7.58
2022-11-05T22:12:32.116Z,7.48
2022-11-05T22:22:35.905Z,7.20
2022-11-05T22:32:38.617Z,7.43
2022-11-05T22:42:42.400Z,7.37
2022-11-05T22:52:44.821Z,6.80
2022-11-05T23:02:48.711Z,6.67
2022-11-05T23:12:53.058Z,6.66
2022-11-05T23:23:14.710Z,6.81
2022-11-05T23:33:17.241Z,6.86
2022-11-05T23:43:38.193Z,6.97
2022-11-05T23:53:41.912Z,6.75
